Time;durP1;ratioP1;P1;durP2;ratioP2;P2;SDS_P1;SDS_P2;PMS_P1;PMS_P2;Temp;Humidity;BMP_temperature;BMP_pressure;BME280_temperature;BME280_humidity;BME280_pressure;Samples;Min_cycle;Max_cycle;Signal;HPM_P1;HPM_P2
2020/12/27 00:00:38;;;;;;;1.88;0.98;;;20.90;50.70;;;;;;5088535;28;20147;-63
2020/12/27 00:03:09;;;;;;;1.85;0.95;;;20.90;50.70;;;;;;5085403;28;20498;-63
2020/12/27 00:05:35;;;;;;;1.40;0.90;;;20.90;50.70;;;;;;5065747;28;20112;-65
2020/12/27 00:08:01;;;;;;;1.60;0.93;;;20.90;50.80;;;;;;5089378;28;20135;-63
2020/12/27 00:10:26;;;;;;;2.13;1.00;;;20.90;50.80;;;;;;5070012;28;20028;-63
2020/12/27 00:12:52;;;;;;;1.83;1.00;;;20.90;50.80;;;;;;5088950;28;20029;-65
2020/12/27 00:15:18;;;;;;;2.00;1.00;;;20.90;50.80;;;;;;5067779;28;20131;-64
2020/12/27 00:17:44;;;;;;;1.98;0.93;;;20.90;50.80;;;;;;5083242;28;20082;-64
2020/12/27 00:20:10;;;;;;;1.58;0.80;;;20.90;50.80;;;;;;5089330;28;20028;-64
2020/12/27 00:22:36;;;;;;;2.88;1.10;;;20.80;50.80;;;;;;5085048;28;20027;-64
2020/12/27 00:25:02;;;;;;;2.38;0.85;;;20.80;50.80;;;;;;5089191;28;20406;-65
2020/12/27 00:27:28;;;;;;;2.28;1.00;;;20.80;50.80;;;;;;5088374;28;20024;-64
2020/12/27 00:29:53;;;;;;;2.17;1.10;;;20.80;50.80;;;;;;5088455;28;20074;-65
2020/12/27 00:32:19;;;;;;;1.88;0.93;;;20.80;50.90;;;;;;5082674;28;20059;-64
2020/12/27 00:34:45;;;;;;;2.78;1.10;;;20.80;50.90;;;;;;5088418;28;20082;-65
2020/12/27 00:37:10;;;;;;;1.60;1.10;;;20.80;50.90;;;;;;5085616;28;20032;-64
2020/12/27 00:39:36;;;;;;;1.80;1.00;;;20.70;50.90;;;;;;5070857;28;20082;-64
2020/12/27 00:42:02;;;;;;;2.17;1.00;;;20.70;50.90;;;;;;5084984;28;20028;-65
2020/12/27 00:44:28;;;;;;;1.67;0.98;;;20.70;50.90;;;;;;5087191;28;20040;-65
2020/12/27 00:46:56;;;;;;;1.48;0.90;;;20.70;51.00;;;;;;5087493;28;20370;-64
2020/12/27 00:49:22;;;;;;;2.20;1.00;;;20.70;51.00;;;;;;5069616;28;20093;-64
2020/12/27 00:51:50;;;;;;;2.05;1.10;;;20.70;51.00;;;;;;5088075;28;20028;-64
2020/12/27 00:54:16;;;;;;;2.17;1.00;;;20.70;51.00;;;;;;5083830;28;20024;-63
2020/12/27 00:56:42;;;;;;;1.75;1.10;;;20.70;51.00;;;;;;5068700;28;20024;-64
2020/12/27 00:59:07;;;;;;;2.13;0.93;;;20.60;51.10;;;;;;5072275;28;20500;-63
2020/12/27 01:01:33;;;;;;;1.45;0.90;;;20.70;51.10;;;;;;5086298;28;20052;-64
2020/12/27 01:03:59;;;;;;;1.58;0.90;;;20.70;51.10;;;;;;5086531;28;20634;-66
2020/12/27 01:06:26;;;;;;;2.67;0.77;;;20.60;51.10;;;;;;5068493;28;20028;-63
2020/12/27 01:08:55;;;;;;;2.70;1.23;;;20.60;51.10;;;;;;5076151;28;20039;-63
2020/12/27 01:11:21;;;;;;;2.35;1.00;;;20.60;51.10;;;;;;5070940;28;20123;-64
2020/12/27 01:13:47;;;;;;;2.15;0.90;;;20.60;51.10;;;;;;5081906;28;21974;-62
2020/12/27 01:16:18;;;;;;;1.80;0.90;;;20.60;51.20;;;;;;5075836;28;20028;-64
2020/12/27 01:18:48;;;;;;;1.63;0.90;;;20.60;51.20;;;;;;5069120;28;20047;-63
2020/12/27 01:21:31;;;;;;;;;;;20.60;51.20;;;;;;5071615;28;20027;-65
2020/12/27 01:23:57;;;;;;;2.03;0.95;;;20.60;51.30;;;;;;5080608;28;19912;-65
2020/12/27 01:26:30;;;;;;;1.63;0.90;;;20.60;51.20;;;;;;5069274;28;20019;-63
2020/12/27 01:28:56;;;;;;;1.63;0.82;;;20.50;51.20;;;;;;5070328;28;20128;-63
2020/12/27 01:31:23;;;;;;;2.10;1.00;;;20.50;51.20;;;;;;5081127;28;20063;-63
2020/12/27 01:33:49;;;;;;;1.42;0.90;;;20.50;51.20;;;;;;5067767;28;20024;-64
2020/12/27 01:36:24;;;;;;;1.80;0.80;;;20.50;51.20;;;;;;5070458;28;20070;-65
2020/12/27 01:38:49;;;;;;;2.20;1.00;;;20.50;51.10;;;;;;5079048;28;20028;-64
2020/12/27 01:41:18;;;;;;;1.13;0.80;;;20.50;51.20;;;;;;5066299;28;20052;-64
2020/12/27 01:43:57;;;;;;;1.85;1.00;;;20.50;51.10;;;;;;5072127;28;20035;-64
2020/12/27 01:46:23;;;;;;;2.20;1.08;;;20.40;51.20;;;;;;5068106;28;20171;-63
2020/12/27 01:48:48;;;;;;;1.20;0.90;;;20.40;51.00;;;;;;5086841;28;20068;-63
2020/12/27 01:51:14;;;;;;;1.52;0.90;;;20.40;51.00;;;;;;5070407;28;20028;-63
2020/12/27 01:53:40;;;;;;;1.25;0.80;;;20.40;51.00;;;;;;5087328;28;20032;-65
2020/12/27 01:56:10;;;;;;;2.45;1.00;;;20.40;51.10;;;;;;5068658;28;20026;-64
2020/12/27 01:58:39;;;;;;;2.92;1.10;;;20.40;51.00;;;;;;5075325;28;20052;-63
2020/12/27 02:01:05;;;;;;;1.98;1.00;;;20.40;51.00;;;;;;5073266;28;20036;-65
2020/12/27 02:03:31;;;;;;;2.10;0.90;;;20.30;51.50;;;;;;5087568;28;20024;-63
2020/12/27 02:05:57;;;;;;;2.67;0.90;;;20.40;51.00;;;;;;5075799;28;20085;-64
2020/12/27 02:08:22;;;;;;;1.75;1.00;;;20.30;51.00;;;;;;5069221;28;20389;-63
2020/12/27 02:10:51;;;;;;;1.50;0.90;;;20.30;51.00;;;;;;5073808;28;20024;-65
2020/12/27 02:13:17;;;;;;;1.90;1.00;;;20.30;50.90;;;;;;5066897;28;20339;-64
2020/12/27 02:15:43;;;;;;;1.48;0.95;;;20.30;50.90;;;;;;5067578;28;20032;-63
2020/12/27 02:18:09;;;;;;;1.38;0.90;;;20.30;51.00;;;;;;5085540;28;20028;-64
2020/12/27 02:20:34;;;;;;;1.80;0.90;;;20.30;51.00;;;;;;5083246;28;20028;-64
2020/12/27 02:23:00;;;;;;;1.83;0.88;;;20.30;50.90;;;;;;5087000;28;20169;-66
2020/12/27 02:25:25;;;;;;;1.35;0.80;;;20.30;51.00;;;;;;5068397;28;20052;-64
2020/12/27 02:27:51;;;;;;;1.52;0.88;;;20.30;51.00;;;;;;5084907;28;20024;-64
2020/12/27 02:30:17;;;;;;;1.95;0.90;;;20.30;51.00;;;;;;5087744;28;20036;-63
2020/12/27 02:32:45;;;;;;;1.98;0.90;;;20.20;50.90;;;;;;5086386;28;20024;-65
2020/12/27 02:35:11;;;;;;;1.70;0.90;;;20.20;50.90;;;;;;5087673;28;20466;-67
2020/12/27 02:37:37;;;;;;;1.98;0.90;;;20.20;50.90;;;;;;5070611;28;20034;-64
2020/12/27 02:40:03;;;;;;;1.83;0.90;;;20.20;51.50;;;;;;5087091;28;20379;-65
2020/12/27 02:42:29;;;;;;;1.15;0.77;;;20.20;50.90;;;;;;5066324;28;20440;-64
2020/12/27 02:47:29;;;;;;;1.30;0.88;;;20.20;50.90;;;;;;5090664;28;20102;-63
2020/12/27 02:49:55;;;;;;;1.75;1.20;;;20.10;50.90;;;;;;5073782;28;20040;-64
2020/12/27 02:52:21;;;;;;;1.65;0.90;;;20.20;51.00;;;;;;5080413;28;20129;-64
2020/12/27 02:54:47;;;;;;;1.27;0.85;;;20.10;50.90;;;;;;5092039;28;20057;-64
2020/12/27 02:57:12;;;;;;;1.50;0.95;;;20.10;50.90;;;;;;5092002;28;20059;-67
2020/12/27 02:59:38;;;;;;;2.70;1.00;;;20.10;50.90;;;;;;5092158;28;20060;-65
2020/12/27 03:02:10;;;;;;;2.28;1.17;;;20.10;50.90;;;;;;5078370;28;20028;-64
2020/12/27 03:04:36;;;;;;;1.40;0.90;;;20.10;51.00;;;;;;5071943;28;20065;-64
2020/12/27 03:07:01;;;;;;;2.35;0.90;;;20.10;51.00;;;;;;5080969;28;20034;-64
2020/12/27 03:09:27;;;;;;;1.15;0.80;;;20.10;51.00;;;;;;5090781;28;20047;-63
2020/12/27 03:11:52;;;;;;;1.40;0.80;;;20.00;51.40;;;;;;5092140;28;20460;-64
2020/12/27 03:14:18;;;;;;;2.38;0.90;;;20.00;50.90;;;;;;5073357;28;20035;-66
2020/12/27 03:16:43;;;;;;;1.70;0.90;;;20.10;51.00;;;;;;5072453;28;20108;-65
2020/12/27 03:19:09;;;;;;;1.40;0.77;;;20.00;50.90;;;;;;5091665;28;20527;-64
2020/12/27 03:21:34;;;;;;;1.35;0.73;;;20.00;51.00;;;;;;5092386;28;20092;-65
2020/12/27 03:24:00;;;;;;;1.20;0.90;;;20.00;51.00;;;;;;5091803;28;20028;-63
2020/12/27 03:26:25;;;;;;;1.13;0.90;;;20.00;51.00;;;;;;5087596;28;20028;-63
2020/12/27 03:28:51;;;;;;;1.60;0.80;;;20.00;51.00;;;;;;5085917;28;20451;-64
2020/12/27 03:31:17;;;;;;;1.15;0.80;;;20.00;51.00;;;;;;5086497;28;20036;-63
2020/12/27 03:33:43;;;;;;;1.38;0.80;;;20.00;51.00;;;;;;5073419;28;20101;-64
2020/12/27 03:36:08;;;;;;;1.55;0.88;;;20.00;51.00;;;;;;5072497;28;20631;-66
2020/12/27 03:38:34;;;;;;;1.98;0.82;;;20.00;51.00;;;;;;5088715;28;20036;-64
2020/12/27 03:41:01;;;;;;;1.33;0.70;;;20.00;51.00;;;;;;5073767;28;20031;-64
2020/12/27 03:43:27;;;;;;;1.50;0.70;;;19.90;51.00;;;;;;5089028;28;20020;-63
2020/12/27 03:45:52;;;;;;;2.53;0.80;;;20.00;51.00;;;;;;5091284;28;20034;-64
2020/12/27 03:48:18;;;;;;;1.33;0.90;;;20.00;51.10;;;;;;5075033;28;20035;-63
2020/12/27 03:50:43;;;;;;;0.98;0.80;;;19.90;51.00;;;;;;5090296;28;20054;-63
2020/12/27 03:53:09;;;;;;;1.27;0.80;;;19.90;51.10;;;;;;5091669;28;20031;-64
2020/12/27 03:55:35;;;;;;;1.48;0.88;;;19.90;51.10;;;;;;5091266;28;20062;-64
2020/12/27 03:58:01;;;;;;;1.30;0.70;;;19.90;51.10;;;;;;5068410;28;20742;-63
2020/12/27 04:00:29;;;;;;;1.33;0.88;;;19.90;51.10;;;;;;5087876;28;20028;-64
2020/12/27 04:02:55;;;;;;;1.03;0.80;;;19.90;51.10;;;;;;5090386;28;20035;-64
2020/12/27 04:05:21;;;;;;;1.35;0.80;;;19.90;51.10;;;;;;5091250;28;20069;-64
2020/12/27 04:07:46;;;;;;;1.17;0.88;;;19.90;51.20;;;;;;5085910;28;20532;-63
2020/12/27 04:10:12;;;;;;;1.90;0.90;;;19.90;51.20;;;;;;5090663;28;20020;-63
2020/12/27 04:12:38;;;;;;;1.33;0.80;;;19.90;51.20;;;;;;5089546;28;20051;-64
2020/12/27 04:15:03;;;;;;;0.82;0.70;;;19.80;51.20;;;;;;5089789;28;20020;-64
2020/12/27 04:17:29;;;;;;;1.00;0.80;;;19.90;51.20;;;;;;5074073;28;20106;-61
2020/12/27 04:19:54;;;;;;;1.08;0.88;;;19.80;51.20;;;;;;5071765;28;20710;-61
2020/12/27 04:22:20;;;;;;;1.05;0.75;;;19.80;51.20;;;;;;5089800;28;20035;-65
2020/12/27 04:24:45;;;;;;;0.73;0.70;;;19.80;51.20;;;;;;5062679;28;20359;-65
2020/12/27 04:27:11;;;;;;;1.38;0.70;;;19.80;51.20;;;;;;5090799;28;20031;-62
2020/12/27 04:29:37;;;;;;;1.13;0.65;;;19.80;51.30;;;;;;5070685;28;20044;-62
2020/12/27 04:32:03;;;;;;;1.13;0.70;;;19.80;51.30;;;;;;5089537;28;20130;-63
2020/12/27 04:34:28;;;;;;;1.40;0.80;;;19.80;51.30;;;;;;5090289;28;20779;-65
2020/12/27 04:36:54;;;;;;;1.40;0.80;;;19.80;51.30;;;;;;5078309;28;20390;-65
2020/12/27 04:39:20;;;;;;;1.23;0.80;;;19.80;51.40;;;;;;5072396;28;20344;-64
2020/12/27 04:41:46;;;;;;;0.90;0.80;;;19.80;51.40;;;;;;5071256;28;20024;-63
2020/12/27 04:44:13;;;;;;;1.20;0.70;;;19.80;51.40;;;;;;5090468;28;20035;-63
2020/12/27 04:46:40;;;;;;;1.50;0.80;;;19.70;51.40;;;;;;5088416;28;20032;-64
2020/12/27 04:49:08;;;;;;;1.02;0.70;;;19.70;51.30;;;;;;5089650;28;20405;-63
2020/12/27 04:51:34;;;;;;;1.52;0.70;;;19.70;51.40;;;;;;5071458;28;20044;-66
2020/12/27 04:54:00;;;;;;;0.90;0.70;;;19.70;51.40;;;;;;5089960;28;20100;-63
2020/12/27 04:56:26;;;;;;;2.00;0.73;;;19.70;51.40;;;;;;5089627;28;20111;-64
2020/12/27 04:58:56;;;;;;;1.50;0.90;;;19.70;51.40;;;;;;5088699;28;20028;-63
2020/12/27 05:01:24;;;;;;;2.58;0.80;;;19.70;51.40;;;;;;5078494;28;20090;-65
2020/12/27 05:03:52;;;;;;;0.98;0.77;;;19.70;51.40;;;;;;5072012;28;20035;-64
2020/12/27 05:06:18;;;;;;;0.97;0.70;;;19.70;51.50;;;;;;5089603;28;20388;-63
2020/12/27 05:08:45;;;;;;;1.13;0.70;;;19.70;51.40;;;;;;5071319;28;20035;-66
2020/12/27 05:11:16;;;;;;;1.55;0.90;;;19.70;51.40;;;;;;5089394;28;21029;-63
2020/12/27 05:13:47;;;;;;;0.60;0.60;;;19.70;51.40;;;;;;5088754;28;20024;-63
2020/12/27 05:16:15;;;;;;;0.77;0.60;;;19.60;51.40;;;;;;5087587;28;20592;-65
2020/12/27 05:18:42;;;;;;;0.70;0.68;;;19.70;52.00;;;;;;5074930;28;20035;-64
2020/12/27 05:21:08;;;;;;;0.95;0.70;;;19.70;51.50;;;;;;5087748;28;20032;-66
2020/12/27 05:23:37;;;;;;;1.15;0.70;;;19.60;51.40;;;;;;5086578;28;20230;-63
2020/12/27 05:26:06;;;;;;;1.10;0.80;;;19.60;51.40;;;;;;5093100;28;20040;-64
2020/12/27 05:28:33;;;;;;;2.13;1.08;;;19.60;51.50;;;;;;5088735;28;20028;-63
2020/12/27 05:31:12;;;;;;;1.20;0.82;;;19.70;51.50;;;;;;5073056;28;20176;-64
2020/12/27 05:33:42;;;;;;;0.90;0.77;;;19.60;51.40;;;;;;5087907;28;20320;-63
2020/12/27 05:36:11;;;;;;;0.90;0.60;;;19.60;51.50;;;;;;5086773;28;20434;-66
2020/12/27 05:38:36;;;;;;;1.25;0.73;;;19.60;51.40;;;;;;5077318;28;20504;-63
2020/12/27 05:41:02;;;;;;;1.08;0.80;;;19.60;51.40;;;;;;5089584;28;20036;-63
2020/12/27 05:43:28;;;;;;;1.33;0.77;;;19.60;51.40;;;;;;5086670;28;20028;-63
2020/12/27 05:45:56;;;;;;;0.80;0.70;;;19.60;51.50;;;;;;5088727;28;20080;-64
2020/12/27 05:48:22;;;;;;;0.75;0.70;;;19.60;51.40;;;;;;5087929;28;20028;-65
2020/12/27 05:50:52;;;;;;;1.85;0.80;;;19.60;51.50;;;;;;5089036;28;20032;-62
2020/12/27 05:53:22;;;;;;;1.27;0.80;;;19.60;51.50;;;;;;5077384;28;20035;-63
2020/12/27 05:55:53;;;;;;;0.82;0.60;;;19.60;51.40;;;;;;5089365;28;20028;-64
2020/12/27 05:58:23;;;;;;;1.00;0.70;;;19.60;51.50;;;;;;5088803;28;20490;-63
2020/12/27 06:00:57;;;;;;;1.13;0.70;;;19.60;51.50;;;;;;5088202;28;20040;-63
2020/12/27 06:03:26;;;;;;;0.82;0.70;;;19.60;51.50;;;;;;5087175;28;20057;-65
2020/12/27 06:05:58;;;;;;;1.27;0.70;;;19.60;51.50;;;;;;5070647;28;20035;-65
2020/12/27 06:08:29;;;;;;;0.95;0.70;;;19.60;51.40;;;;;;5087688;28;20024;-63
2020/12/27 06:10:59;;;;;;;1.05;0.70;;;19.60;51.50;;;;;;5089551;28;20069;-63
2020/12/27 06:13:58;;;;;;;1.15;0.75;;;19.60;51.50;;;;;;5087622;28;20056;-63
2020/12/27 06:16:50;;;;;;;0.85;0.68;;;19.60;51.50;;;;;;5069504;28;20579;-64
2020/12/27 06:19:15;;;;;;;1.00;0.70;;;19.60;51.50;;;;;;5079986;28;20036;-64
2020/12/27 06:21:41;;;;;;;1.27;0.70;;;19.60;51.50;;;;;;5086166;28;20020;-63
2020/12/27 06:24:13;;;;;;;1.30;0.75;;;19.60;51.50;;;;;;5085701;28;20016;-63
2020/12/27 06:26:40;;;;;;;1.20;0.80;;;19.50;51.40;;;;;;5080999;28;20039;-66
2020/12/27 06:29:05;;;;;;;0.75;0.60;;;19.60;51.50;;;;;;5074282;28;20085;-63
2020/12/27 06:31:36;;;;;;;1.48;0.90;;;19.60;51.50;;;;;;5070013;28;20028;-64
2020/12/27 06:34:02;;;;;;;1.00;0.70;;;19.60;51.50;;;;;;5087165;28;20028;-63
2020/12/27 06:36:32;;;;;;;0.85;0.68;;;19.60;51.50;;;;;;5088133;28;20020;-63
2020/12/27 06:38:57;;;;;;;0.75;0.60;;;19.60;51.50;;;;;;5088600;28;20465;-63
2020/12/27 06:41:23;;;;;;;0.88;0.75;;;19.50;51.50;;;;;;5073090;28;20032;-63
2020/12/27 06:43:49;;;;;;;0.75;0.60;;;19.50;51.40;;;;;;5088679;28;20028;-64
2020/12/27 06:46:26;;;;;;;0.80;0.60;;;19.50;51.40;;;;;;5069602;28;20027;-65
2020/12/27 06:49:11;;;;;;;1.20;0.70;;;19.50;51.40;;;;;;5062924;28;20027;-63
2020/12/27 06:51:41;;;;;;;1.00;0.70;;;19.50;51.40;;;;;;5088357;28;20028;-63
2020/12/27 06:54:08;;;;;;;1.05;0.70;;;19.50;51.40;;;;;;5074524;28;20024;-63
2020/12/27 06:56:41;;;;;;;1.08;0.70;;;19.50;51.40;;;;;;5069643;28;20036;-65
2020/12/27 06:59:07;;;;;;;1.23;0.60;;;19.50;51.40;;;;;;5088212;28;20462;-64
2020/12/27 07:01:33;;;;;;;0.75;0.60;;;19.50;51.40;;;;;;5083117;28;20146;-62
2020/12/27 07:04:18;;;;;;;0.70;0.65;;;19.50;51.40;;;;;;5088070;28;20024;-64
2020/12/27 07:06:46;;;;;;;1.10;0.80;;;19.50;51.40;;;;;;5086411;28;20032;-65
2020/12/27 07:09:20;;;;;;;1.40;0.80;;;19.50;51.40;;;;;;5087551;28;20377;-64
2020/12/27 07:11:47;;;;;;;0.77;0.60;;;19.50;51.40;;;;;;5070288;28;20466;-63
2020/12/27 07:14:14;;;;;;;0.90;0.80;;;19.50;51.40;;;;;;5087774;28;20080;-65
2020/12/27 07:16:56;;;;;;;1.05;0.75;;;19.50;51.40;;;;;;5082873;28;20021;-63
2020/12/27 07:19:28;;;;;;;1.10;0.80;;;19.50;51.40;;;;;;5088383;28;20020;-66
2020/12/27 07:21:57;;;;;;;1.25;0.77;;;19.50;51.40;;;;;;5078473;28;20052;-64
2020/12/27 07:24:25;;;;;;;0.82;0.60;;;19.50;51.40;;;;;;5088162;28;20067;-65
2020/12/27 07:26:51;;;;;;;1.33;0.70;;;19.40;51.40;;;;;;5069824;28;20036;-63
2020/12/27 07:29:23;;;;;;;1.20;0.60;;;19.40;51.40;;;;;;5087554;28;20024;-65
2020/12/27 07:31:51;;;;;;;0.98;0.73;;;19.50;51.40;;;;;;5087874;28;20040;-64
2020/12/27 07:34:25;;;;;;;1.20;0.70;;;19.40;51.40;;;;;;5091586;28;20016;-63
2020/12/27 07:36:58;;;;;;;0.85;0.70;;;19.40;51.40;;;;;;5072509;28;20043;-66
2020/12/27 07:39:50;;;;;;;1.42;0.60;;;19.50;51.40;;;;;;5091131;28;20035;-62
2020/12/27 07:42:22;;;;;;;0.90;0.65;;;19.40;51.40;;;;;;5091210;28;20039;-64
2020/12/27 07:44:48;;;;;;;0.73;0.60;;;19.40;51.40;;;;;;5090988;28;20059;-64
2020/12/27 07:47:14;;;;;;;0.75;0.60;;;19.40;51.40;;;;;;5088749;28;20059;-64
2020/12/27 07:49:40;;;;;;;0.90;0.70;;;19.40;51.40;;;;;;5087906;28;20031;-64
2020/12/27 07:52:05;;;;;;;0.80;0.65;;;19.40;51.40;;;;;;5090181;28;20032;-64
2020/12/27 07:54:31;;;;;;;1.38;0.60;;;19.40;51.40;;;;;;5090840;28;20027;-63
2020/12/27 07:56:57;;;;;;;1.05;0.63;;;19.40;51.40;;;;;;5088826;28;20535;-64
2020/12/27 07:59:23;;;;;;;0.90;0.68;;;19.40;51.40;;;;;;5068905;28;20024;-63
2020/12/27 08:01:49;;;;;;;1.15;0.70;;;19.40;51.40;;;;;;5063372;28;20077;-66
2020/12/27 08:04:15;;;;;;;1.00;0.70;;;19.40;51.30;;;;;;5089723;28;20060;-63
2020/12/27 08:06:41;;;;;;;0.70;0.68;;;19.40;51.20;;;;;;5089105;28;20437;-63
2020/12/27 08:09:12;;;;;;;1.05;0.70;;;19.50;51.20;;;;;;5080288;28;20110;-64
2020/12/27 08:11:39;;;;;;;0.85;0.57;;;19.40;51.20;;;;;;5083441;28;20069;-64
2020/12/27 08:14:10;;;;;;;1.02;0.68;;;19.50;51.20;;;;;;5068192;28;20028;-63
2020/12/27 08:16:36;;;;;;;0.80;0.80;;;19.50;51.10;;;;;;5089864;28;20032;-63
2020/12/27 08:19:17;;;;;;;0.90;0.70;;;19.40;51.10;;;;;;5071334;28;20032;-64
2020/12/27 08:21:44;;;;;;;0.98;0.60;;;19.40;51.10;;;;;;5065090;28;20031;-64
2020/12/27 08:24:14;;;;;;;0.93;0.60;;;19.40;51.10;;;;;;5090440;28;20070;-63
2020/12/27 08:26:42;;;;;;;1.45;0.70;;;19.40;51.10;;;;;;5065182;28;20711;-61
2020/12/27 08:29:12;;;;;;;1.25;0.70;;;19.40;51.60;;;;;;5089083;28;20035;-62
2020/12/27 08:31:38;;;;;;;;;;;19.40;51.10;;;;;;5087925;28;20382;-61
2020/12/27 08:34:09;;;;;;;0.90;0.70;;;19.40;51.20;;;;;;5084586;28;19922;-61
2020/12/27 08:36:37;;;;;;;0.80;0.60;;;19.40;51.10;;;;;;5089811;28;20115;-61
2020/12/27 08:39:11;;;;;;;0.60;0.50;;;19.40;51.20;;;;;;5090873;28;20035;-61
2020/12/27 08:41:41;;;;;;;0.88;0.70;;;19.40;51.20;;;;;;5090000;28;20039;-61
2020/12/27 08:44:16;;;;;;;;;;;19.40;51.20;;;;;;5090829;28;20083;-61
2020/12/27 08:46:46;;;;;;;0.77;0.60;;;19.40;51.20;;;;;;5079330;28;19918;-61
2020/12/27 08:49:37;;;;;;;0.57;0.50;;;19.40;51.20;;;;;;5091758;28;20103;-62
2020/12/27 08:52:23;;;;;;;0.65;0.50;;;19.30;51.10;;;;;;5079562;28;20095;-62
2020/12/27 08:54:57;;;;;;;0.63;0.52;;;19.40;51.20;;;;;;5088808;28;20024;-62
2020/12/27 08:57:24;;;;;;;0.70;0.60;;;19.30;51.10;;;;;;5089758;28;20111;-65
2020/12/27 09:00:07;;;;;;;0.85;0.60;;;19.40;51.00;;;;;;5089674;28;20091;-64
2020/12/27 09:02:33;;;;;;;0.60;0.60;;;19.40;50.90;;;;;;5079679;28;20028;-64
2020/12/27 09:05:13;;;;;;;0.70;0.70;;;19.30;50.90;;;;;;5070641;28;20036;-64
2020/12/27 09:07:42;;;;;;;;;;;19.40;51.00;;;;;;5093746;28;20417;-63
2020/12/27 09:10:09;;;;;;;0.70;0.50;;;19.40;51.00;;;;;;5086887;28;20284;-66
2020/12/27 09:12:36;;;;;;;0.60;0.50;;;19.30;50.80;;;;;;5088369;28;20050;-63
2020/12/27 09:15:21;;;;;;;1.00;0.60;;;19.40;50.90;;;;;;5070527;28;20030;-65
2020/12/27 09:17:52;;;;;;;0.60;0.60;;;19.40;50.90;;;;;;5080889;28;20028;-64
2020/12/27 09:20:20;;;;;;;1.00;0.55;;;19.30;50.80;;;;;;5082909;28;20164;-63
2020/12/27 09:22:45;;;;;;;0.77;0.60;;;19.40;50.90;;;;;;5084486;28;20412;-64
2020/12/27 09:25:11;;;;;;;1.00;0.70;;;19.40;51.00;;;;;;5078085;28;20051;-64
2020/12/27 09:27:37;;;;;;;0.88;0.60;;;19.40;50.90;;;;;;5073818;28;20187;-63
2020/12/27 09:30:03;;;;;;;0.63;0.52;;;19.40;51.00;;;;;;5089119;28;20126;-64
2020/12/27 09:32:35;;;;;;;0.73;0.50;;;19.30;50.90;;;;;;5075814;28;20077;-65
2020/12/27 09:35:01;;;;;;;0.85;0.50;;;19.40;51.00;;;;;;5089221;28;20409;-62
2020/12/27 09:37:34;;;;;;;0.60;0.60;;;19.30;50.90;;;;;;5083683;28;20490;-64
2020/12/27 09:40:02;;;;;;;2.38;0.90;;;19.30;51.00;;;;;;5071006;28;20031;-64
2020/12/27 09:42:30;;;;;;;0.63;0.50;;;19.30;50.90;;;;;;5087206;28;20024;-64
2020/12/27 09:44:56;;;;;;;0.80;0.60;;;19.40;51.00;;;;;;5079007;28;20097;-62
2020/12/27 09:47:27;;;;;;;0.77;0.50;;;19.40;51.00;;;;;;5087003;28;20728;-63
2020/12/27 09:50:05;;;;;;;1.02;0.70;;;19.30;51.00;;;;;;5087749;28;20036;-62
2020/12/27 09:52:31;;;;;;;0.68;0.57;;;19.30;51.00;;;;;;5080823;28;20016;-64
2020/12/27 09:54:56;;;;;;;0.80;0.60;;;19.30;51.00;;;;;;5086597;28;20051;-63
2020/12/27 09:57:24;;;;;;;1.33;0.50;;;19.30;51.00;;;;;;5087960;28;21815;-63
2020/12/27 09:59:51;;;;;;;1.55;0.60;;;19.30;51.10;;;;;;5088573;28;20103;-63
2020/12/27 10:02:22;;;;;;;0.70;0.60;;;19.30;51.10;;;;;;5085119;28;20051;-65
2020/12/27 10:04:48;;;;;;;0.95;0.60;;;19.30;51.10;;;;;;5069358;28;20033;-65
2020/12/27 10:07:14;;;;;;;0.98;0.60;;;19.30;51.10;;;;;;5082154;28;20058;-64
2020/12/27 10:09:39;;;;;;;1.42;0.60;;;19.30;51.10;;;;;;5070143;28;20036;-63
2020/12/27 10:12:05;;;;;;;0.95;0.60;;;19.30;51.10;;;;;;5068183;28;20422;-64
2020/12/27 10:14:31;;;;;;;0.95;0.60;;;19.30;51.10;;;;;;5073302;28;20012;-64
2020/12/27 10:16:59;;;;;;;2.33;0.60;;;19.30;51.20;;;;;;5086917;28;20103;-62
2020/12/27 10:19:25;;;;;;;1.42;0.60;;;19.30;51.70;;;;;;5070114;28;20368;-63
2020/12/27 10:21:51;;;;;;;0.82;0.60;;;19.30;51.20;;;;;;5087709;28;20035;-65
2020/12/27 10:24:16;;;;;;;1.20;0.60;;;19.30;51.20;;;;;;5088484;28;20458;-63
2020/12/27 10:26:47;;;;;;;2.28;0.70;;;19.30;51.30;;;;;;5085092;28;20116;-65
2020/12/27 10:29:13;;;;;;;0.60;0.60;;;19.30;51.30;;;;;;5091262;28;20109;-64
2020/12/27 10:31:38;;;;;;;0.85;0.60;;;19.30;51.30;;;;;;5086128;28;20027;-63
2020/12/27 10:34:04;;;;;;;1.38;0.68;;;19.30;51.30;;;;;;5106468;28;20072;-64
2020/12/27 10:36:30;;;;;;;1.02;0.60;;;19.30;51.40;;;;;;5080981;28;20020;-63
2020/12/27 10:38:55;;;;;;;1.38;0.60;;;19.30;51.40;;;;;;5080063;28;20059;-64
2020/12/27 10:41:21;;;;;;;2.30;0.90;;;19.30;51.50;;;;;;5088480;28;20750;-63
2020/12/27 10:43:49;;;;;;;1.23;0.73;;;19.30;51.50;;;;;;5090659;28;20027;-63
2020/12/27 10:46:16;;;;;;;1.10;0.70;;;19.30;51.50;;;;;;5092439;28;20044;-64
2020/12/27 10:48:42;;;;;;;1.40;0.80;;;19.30;51.40;;;;;;5102222;28;20015;-63
2020/12/27 10:51:08;;;;;;;2.05;0.70;;;19.30;51.40;;;;;;5088428;28;20032;-64
2020/12/27 10:53:34;;;;;;;8.20;0.80;;;19.30;51.40;;;;;;5086696;28;20047;-64
2020/12/27 10:55:59;;;;;;;1.83;0.90;;;19.30;51.50;;;;;;5062358;28;20055;-66
2020/12/27 10:58:25;;;;;;;1.42;0.80;;;19.30;51.50;;;;;;5061161;28;20094;-63
2020/12/27 11:00:51;;;;;;;3.50;0.90;;;19.30;51.50;;;;;;5087456;28;20510;-64
2020/12/27 11:03:16;;;;;;;1.30;0.80;;;19.30;51.50;;;;;;5087035;28;20047;-64
2020/12/27 11:05:42;;;;;;;1.38;0.80;;;19.30;51.50;;;;;;5083795;28;20031;-63
2020/12/27 11:08:07;;;;;;;2.28;0.70;;;19.30;51.50;;;;;;5095844;28;20024;-63
2020/12/27 11:10:34;;;;;;;1.60;0.80;;;19.30;51.50;;;;;;5090680;28;20028;-64
2020/12/27 11:12:59;;;;;;;1.98;0.93;;;19.30;51.50;;;;;;5083355;28;20040;-64
2020/12/27 11:15:25;;;;;;;1.60;0.75;;;19.30;51.60;;;;;;5089716;28;20062;-64
2020/12/27 11:17:51;;;;;;;2.05;0.85;;;19.30;51.60;;;;;;5086970;28;20075;-62
2020/12/27 11:20:17;;;;;;;1.52;0.80;;;19.30;51.60;;;;;;5068465;28;20020;-64
2020/12/27 11:22:42;;;;;;;2.38;0.88;;;19.30;51.60;;;;;;5085849;28;20028;-63
2020/12/27 11:25:09;;;;;;;1.20;0.80;;;19.30;51.60;;;;;;5075895;28;20119;-63
2020/12/27 11:27:35;;;;;;;1.80;0.73;;;19.30;51.60;;;;;;5089058;28;20346;-64
2020/12/27 11:30:01;;;;;;;4.68;0.90;;;19.30;51.70;;;;;;5044631;28;20039;-62
2020/12/27 11:32:28;;;;;;;3.25;0.73;;;19.30;51.70;;;;;;5065257;28;20025;-66
2020/12/27 11:34:54;;;;;;;1.20;0.60;;;19.30;51.70;;;;;;5047328;28;20456;-63
2020/12/27 11:37:19;;;;;;;3.05;0.90;;;19.30;51.70;;;;;;5069672;28;20100;-65
2020/12/27 11:39:45;;;;;;;4.75;1.02;;;19.30;51.70;;;;;;5067010;28;20218;-62
2020/12/27 11:42:11;;;;;;;1.45;0.90;;;19.30;51.70;;;;;;5066486;28;20024;-62
2020/12/27 11:44:36;;;;;;;2.17;0.90;;;19.20;51.70;;;;;;5049552;28;20033;-62
2020/12/27 11:47:06;;;;;;;2.20;0.85;;;19.20;51.60;;;;;;5066408;28;20083;-63
2020/12/27 11:49:32;;;;;;;2.92;0.85;;;19.20;51.70;;;;;;5045686;28;20070;-63
2020/12/27 11:51:58;;;;;;;0.90;0.75;;;19.30;51.70;;;;;;5066305;28;20025;-63
2020/12/27 11:54:23;;;;;;;1.73;0.70;;;19.30;51.70;;;;;;5068096;28;20365;-65
2020/12/27 11:56:50;;;;;;;2.05;0.98;;;19.20;51.70;;;;;;5047797;28;20021;-65
2020/12/27 11:59:15;;;;;;;2.53;0.88;;;19.20;51.70;;;;;;5065489;28;20025;-62
2020/12/27 12:01:47;;;;;;;2.35;0.90;;;19.30;51.70;;;;;;5041240;28;20029;-65
2020/12/27 12:04:13;;;;;;;1.92;0.90;;;19.20;51.70;;;;;;5071806;28;20033;-64
2020/12/27 12:06:38;;;;;;;2.65;0.90;;;19.20;51.70;;;;;;5072467;28;20026;-63
2020/12/27 12:09:04;;;;;;;2.72;0.90;;;19.30;51.80;;;;;;5051584;28;20414;-62
2020/12/27 12:11:33;;;;;;;2.15;1.10;;;19.20;51.70;;;;;;5054538;28;20036;-65
2020/12/27 12:13:59;;;;;;;1.63;0.85;;;19.20;51.70;;;;;;5065063;28;20405;-64
2020/12/27 12:16:25;;;;;;;1.10;0.80;;;19.30;51.80;;;;;;5038371;28;20054;-62
2020/12/27 12:18:51;;;;;;;2.70;0.82;;;19.20;51.80;;;;;;5052813;28;20027;-62
2020/12/27 12:21:16;;;;;;;2.05;0.90;;;19.30;52.20;;;;;;5068301;28;20067;-61
2020/12/27 12:23:42;;;;;;;1.60;0.80;;;19.30;52.10;;;;;;5065665;28;20530;-62
2020/12/27 12:26:09;;;;;;;1.60;0.88;;;19.40;52.10;;;;;;5070203;28;20043;-61
2020/12/27 12:28:34;;;;;;;2.30;0.90;;;19.50;52.10;;;;;;5060333;28;20031;-64
2020/12/27 12:31:00;;;;;;;1.15;0.70;;;19.60;52.20;;;;;;5086267;28;20032;-64
2020/12/27 12:33:25;;;;;;;4.25;0.80;;;19.60;52.00;;;;;;5069316;28;20032;-64
2020/12/27 12:35:51;;;;;;;2.38;0.70;;;19.70;52.20;;;;;;5089945;28;20093;-65
2020/12/27 12:38:17;;;;;;;1.60;0.80;;;19.70;52.00;;;;;;5087569;28;20023;-69
2020/12/27 12:40:43;;;;;;;1.83;0.70;;;19.80;52.10;;;;;;5090325;28;20027;-64
2020/12/27 12:43:08;;;;;;;1.23;0.68;;;19.80;51.90;;;;;;5089161;28;20043;-62
2020/12/27 12:45:34;;;;;;;4.28;1.00;;;19.90;52.10;;;;;;5085571;28;20483;-65
2020/12/27 12:48:00;;;;;;;2.95;0.85;;;19.90;52.20;;;;;;5087242;28;20324;-66
2020/12/27 12:50:26;;;;;;;4.55;0.80;;;19.90;52.20;;;;;;5086781;28;20024;-60
2020/12/27 12:52:51;;;;;;;2.00;1.00;;;20.00;52.20;;;;;;5064676;28;20506;-64